sensor_id;sensor_type;location;lat;lon;timestamp;temperature;humidity
80964;DHT22;70425;59.322;13.486;2023-09-12T00:00:41;17.80;99.90
80964;DHT22;70425;59.322;13.486;2023-09-12T00:03:31;17.80;99.90
80964;DHT22;70425;59.322;13.486;2023-09-12T00:09:04;17.70;99.90
80964;DHT22;70425;59.322;13.486;2023-09-12T00:11:53;17.60;99.90
80964;DHT22;70425;59.322;13.486;2023-09-12T00:14:43;17.70;99.90
80964;DHT22;70425;59.322;13.486;2023-09-12T00:17:32;17.80;99.90
80964;DHT22;70425;59.322;13.486;2023-09-12T00:23:07;17.70;99.90
80964;DHT22;70425;59.322;13.486;2023-09-12T00:25:57;17.60;99.90
80964;DHT22;70425;59.322;13.486;2023-09-12T00:28:46;17.60;99.90
80964;DHT22;70425;59.322;13.486;2023-09-12T00:31:35;17.60;99.90
80964;DHT22;70425;59.322;13.486;2023-09-12T00:34:23;17.60;99.90
80964;DHT22;70425;59.322;13.486;2023-09-12T00:37:12;17.70;99.90
80964;DHT22;70425;59.322;13.486;2023-09-12T00:40:00;17.60;99.90
80964;DHT22;70425;59.322;13.486;2023-09-12T00:45:34;17.70;99.90
80964;DHT22;70425;59.322;13.486;2023-09-12T00:48:24;17.70;99.90
80964;DHT22;70425;59.322;13.486;2023-09-12T00:54:07;17.70;99.90
80964;DHT22;70425;59.322;13.486;2023-09-12T00:56:56;17.70;99.90
80964;DHT22;70425;59.322;13.486;2023-09-12T00:59:45;17.70;99.90
80964;DHT22;70425;59.322;13.486;2023-09-12T01:02:35;17.70;99.90
80964;DHT22;70425;59.322;13.486;2023-09-12T01:05:24;17.80;99.90
80964;DHT22;70425;59.322;13.486;2023-09-12T01:11:08;17.90;99.90
80964;DHT22;70425;59.322;13.486;2023-09-12T01:13:57;17.90;99.90
80964;DHT22;70425;59.322;13.486;2023-09-12T01:16:46;17.90;99.90
80964;DHT22;70425;59.322;13.486;2023-09-12T01:19:34;17.90;99.90
80964;DHT22;70425;59.322;13.486;2023-09-12T01:22:51;17.90;99.90
80964;DHT22;70425;59.322;13.486;2023-09-12T01:29:41;17.90;99.90
80964;DHT22;70425;59.322;13.486;2023-09-12T01:32:32;17.90;99.90
80964;DHT22;70425;59.322;13.486;2023-09-12T01:35:22;17.80;99.90
80964;DHT22;70425;59.322;13.486;2023-09-12T01:38:10;17.80;99.90
80964;DHT22;70425;59.322;13.486;2023-09-12T01:40:59;17.90;99.90
80964;DHT22;70425;59.322;13.486;2023-09-12T01:57:18;17.80;99.90
80964;DHT22;70425;59.322;13.486;2023-09-12T02:02:53;17.70;99.90
80964;DHT22;70425;59.322;13.486;2023-09-12T02:05:42;17.60;99.90
80964;DHT22;70425;59.322;13.486;2023-09-12T02:08:31;17.60;99.90
80964;DHT22;70425;59.322;13.486;2023-09-12T02:11:20;17.60;99.90
80964;DHT22;70425;59.322;13.486;2023-09-12T02:14:08;17.60;99.90
80964;DHT22;70425;59.322;13.486;2023-09-12T02:16:58;17.60;99.90
80964;DHT22;70425;59.322;13.486;2023-09-12T02:22:35;17.60;99.90
80964;DHT22;70425;59.322;13.486;2023-09-12T02:25:25;17.60;99.90
80964;DHT22;70425;59.322;13.486;2023-09-12T02:31:01;17.60;99.90
80964;DHT22;70425;59.322;13.486;2023-09-12T02:33:50;17.70;99.90
80964;DHT22;70425;59.322;13.486;2023-09-12T02:36:39;17.60;99.90
80964;DHT22;70425;59.322;13.486;2023-09-12T02:42:22;17.60;99.90
80964;DHT22;70425;59.322;13.486;2023-09-12T02:45:11;17.50;99.90
80964;DHT22;70425;59.322;13.486;2023-09-12T02:48:00;17.50;99.90
80964;DHT22;70425;59.322;13.486;2023-09-12T02:50:50;17.50;99.90
80964;DHT22;70425;59.322;13.486;2023-09-12T02:56:31;17.60;99.90
80964;DHT22;70425;59.322;13.486;2023-09-12T02:59:19;17.50;99.90
80964;DHT22;70425;59.322;13.486;2023-09-12T03:04:54;17.50;99.90
80964;DHT22;70425;59.322;13.486;2023-09-12T03:07:45;17.50;99.90
80964;DHT22;70425;59.322;13.486;2023-09-12T03:10:35;17.50;99.90
80964;DHT22;70425;59.322;13.486;2023-09-12T03:13:25;17.50;99.90
80964;DHT22;70425;59.322;13.486;2023-09-12T03:18:59;17.50;99.90
80964;DHT22;70425;59.322;13.486;2023-09-12T03:21:49;17.40;99.90
80964;DHT22;70425;59.322;13.486;2023-09-12T03:24:38;17.50;99.90
80964;DHT22;70425;59.322;13.486;2023-09-12T03:27:27;17.50;99.90
80964;DHT22;70425;59.322;13.486;2023-09-12T03:30:16;17.50;99.90
80964;DHT22;70425;59.322;13.486;2023-09-12T03:35:50;17.50;99.90
80964;DHT22;70425;59.322;13.486;2023-09-12T03:38:40;17.40;99.90
80964;DHT22;70425;59.322;13.486;2023-09-12T03:41:28;17.40;99.90
80964;DHT22;70425;59.322;13.486;2023-09-12T03:44:18;17.50;99.90
80964;DHT22;70425;59.322;13.486;2023-09-12T03:47:07;17.40;99.90
80964;DHT22;70425;59.322;13.486;2023-09-12T03:52:37;17.50;99.90
80964;DHT22;70425;59.322;13.486;2023-09-12T03:55:26;17.40;99.90
80964;DHT22;70425;59.322;13.486;2023-09-12T03:58:15;17.40;99.90
80964;DHT22;70425;59.322;13.486;2023-09-12T04:01:05;17.30;99.90
80964;DHT22;70425;59.322;13.486;2023-09-12T04:03:54;17.40;99.90
80964;DHT22;70425;59.322;13.486;2023-09-12T04:12:07;17.40;99.90
80964;DHT22;70425;59.322;13.486;2023-09-12T04:14:57;17.40;99.90
80964;DHT22;70425;59.322;13.486;2023-09-12T04:18:16;17.40;99.90
80964;DHT22;70425;59.322;13.486;2023-09-12T04:21:24;17.40;99.90
80964;DHT22;70425;59.322;13.486;2023-09-12T04:24:17;17.40;99.90
80964;DHT22;70425;59.322;13.486;2023-09-12T04:27:07;17.40;99.90
80964;DHT22;70425;59.322;13.486;2023-09-12T04:29:59;17.30;99.90
80964;DHT22;70425;59.322;13.486;2023-09-12T04:32:49;17.40;99.90
80964;DHT22;70425;59.322;13.486;2023-09-12T04:35:38;17.40;99.90
80964;DHT22;70425;59.322;13.486;2023-09-12T04:38:31;17.30;99.90
80964;DHT22;70425;59.322;13.486;2023-09-12T04:41:21;17.30;99.90
80964;DHT22;70425;59.322;13.486;2023-09-12T04:44:12;17.30;99.90
80964;DHT22;70425;59.322;13.486;2023-09-12T04:47:04;17.30;99.90
80964;DHT22;70425;59.322;13.486;2023-09-12T04:49:53;17.40;99.90
80964;DHT22;70425;59.322;13.486;2023-09-12T04:52:42;17.40;99.90
80964;DHT22;70425;59.322;13.486;2023-09-12T04:55:34;17.40;99.90
80964;DHT22;70425;59.322;13.486;2023-09-12T04:58:28;17.40;99.90
80964;DHT22;70425;59.322;13.486;2023-09-12T05:17:23;17.40;99.90
80964;DHT22;70425;59.322;13.486;2023-09-12T05:20:14;17.50;99.90
80964;DHT22;70425;59.322;13.486;2023-09-12T05:23:03;17.50;99.90
80964;DHT22;70425;59.322;13.486;2023-09-12T05:25:52;17.50;99.90
80964;DHT22;70425;59.322;13.486;2023-09-12T05:28:41;17.50;99.90
80964;DHT22;70425;59.322;13.486;2023-09-12T05:31:29;17.50;99.90
80964;DHT22;70425;59.322;13.486;2023-09-12T05:37:30;17.50;99.90
80964;DHT22;70425;59.322;13.486;2023-09-12T05:40:19;17.60;99.90
80964;DHT22;70425;59.322;13.486;2023-09-12T05:56:44;17.60;99.90
80964;DHT22;70425;59.322;13.486;2023-09-12T06:02:24;17.90;99.90
80964;DHT22;70425;59.322;13.486;2023-09-12T06:08:40;18.00;99.90
80964;DHT22;70425;59.322;13.486;2023-09-12T06:11:29;18.10;99.90
80964;DHT22;70425;59.322;13.486;2023-09-12T06:14:20;18.10;99.90
80964;DHT22;70425;59.322;13.486;2023-09-12T06:17:10;18.10;99.90
80964;DHT22;70425;59.322;13.486;2023-09-12T06:20:01;18.10;99.90
80964;DHT22;70425;59.322;13.486;2023-09-12T06:22:53;18.10;99.90
80964;DHT22;70425;59.322;13.486;2023-09-12T06:38:55;18.20;99.90
80964;DHT22;70425;59.322;13.486;2023-09-12T06:45:23;18.30;99.90
80964;DHT22;70425;59.322;13.486;2023-09-12T06:48:13;18.40;99.90
80964;DHT22;70425;59.322;13.486;2023-09-12T06:51:05;18.50;99.90
80964;DHT22;70425;59.322;13.486;2023-09-12T06:53:55;18.70;99.90
80964;DHT22;70425;59.322;13.486;2023-09-12T06:56:44;18.90;99.90
80964;DHT22;70425;59.322;13.486;2023-09-12T07:03:23;19.50;99.90
80964;DHT22;70425;59.322;13.486;2023-09-12T07:06:14;19.50;99.90
80964;DHT22;70425;59.322;13.486;2023-09-12T07:09:04;19.40;99.90
80964;DHT22;70425;59.322;13.486;2023-09-12T07:11:56;19.30;99.90
80964;DHT22;70425;59.322;13.486;2023-09-12T07:18:06;19.10;99.90
80964;DHT22;70425;59.322;13.486;2023-09-12T07:21:00;19.00;99.90
80964;DHT22;70425;59.322;13.486;2023-09-12T07:23:50;19.00;99.90
80964;DHT22;70425;59.322;13.486;2023-09-12T07:26:41;19.10;99.90
80964;DHT22;70425;59.322;13.486;2023-09-12T07:33:01;19.20;99.90
80964;DHT22;70425;59.322;13.486;2023-09-12T07:36:06;19.20;99.90
80964;DHT22;70425;59.322;13.486;2023-09-12T07:43:08;19.20;99.90
80964;DHT22;70425;59.322;13.486;2023-09-12T07:46:19;19.40;99.90
80964;DHT22;70425;59.322;13.486;2023-09-12T07:49:12;19.50;99.90
80964;DHT22;70425;59.322;13.486;2023-09-12T07:52:21;19.40;99.90
80964;DHT22;70425;59.322;13.486;2023-09-12T07:55:34;19.50;99.90
80964;DHT22;70425;59.322;13.486;2023-09-12T08:48:44;20.20;99.90
80964;DHT22;70425;59.322;13.486;2023-09-12T09:05:37;21.00;99.90
80964;DHT22;70425;59.322;13.486;2023-09-12T10:49:13;19.50;99.90
80964;DHT22;70425;59.322;13.486;2023-09-12T11:38:51;19.90;99.90
80964;DHT22;70425;59.322;13.486;2023-09-12T11:41:51;20.00;99.90
80964;DHT22;70425;59.322;13.486;2023-09-12T11:44:44;20.10;99.90
80964;DHT22;70425;59.322;13.486;2023-09-12T11:47:41;20.10;99.90
80964;DHT22;70425;59.322;13.486;2023-09-12T12:58:50;20.90;99.90
80964;DHT22;70425;59.322;13.486;2023-09-12T13:32:00;20.40;99.90
80964;DHT22;70425;59.322;13.486;2023-09-12T13:34:50;20.30;99.90
80964;DHT22;70425;59.322;13.486;2023-09-12T13:37:39;20.40;99.90
80964;DHT22;70425;59.322;13.486;2023-09-12T13:40:28;20.50;99.90
80964;DHT22;70425;59.322;13.486;2023-09-12T13:43:19;20.60;99.90
80964;DHT22;70425;59.322;13.486;2023-09-12T15:00:36;19.80;99.90
80964;DHT22;70425;59.322;13.486;2023-09-12T15:03:26;19.60;99.90
80964;DHT22;70425;59.322;13.486;2023-09-12T15:06:15;19.70;99.90
80964;DHT22;70425;59.322;13.486;2023-09-12T15:09:05;19.70;99.90
80964;DHT22;70425;59.322;13.486;2023-09-12T15:25:08;19.60;99.90
80964;DHT22;70425;59.322;13.486;2023-09-12T15:32:28;19.40;99.90
80964;DHT22;70425;59.322;13.486;2023-09-12T15:35:19;19.50;99.90
80964;DHT22;70425;59.322;13.486;2023-09-12T15:38:11;19.50;99.90
80964;DHT22;70425;59.322;13.486;2023-09-12T15:41:03;19.40;99.90
80964;DHT22;70425;59.322;13.486;2023-09-12T15:43:57;19.20;99.90
80964;DHT22;70425;59.322;13.486;2023-09-12T15:46:50;19.20;99.90
80964;DHT22;70425;59.322;13.486;2023-09-12T15:49:42;19.30;99.90
80964;DHT22;70425;59.322;13.486;2023-09-12T15:52:48;19.20;99.90
80964;DHT22;70425;59.322;13.486;2023-09-12T15:55:39;19.10;99.90
80964;DHT22;70425;59.322;13.486;2023-09-12T15:58:28;19.00;99.90
80964;DHT22;70425;59.322;13.486;2023-09-12T16:01:17;19.00;99.90
80964;DHT22;70425;59.322;13.486;2023-09-12T16:04:09;19.00;99.90
80964;DHT22;70425;59.322;13.486;2023-09-12T16:06:59;19.00;99.90
80964;DHT22;70425;59.322;13.486;2023-09-12T16:09:48;19.10;99.90
80964;DHT22;70425;59.322;13.486;2023-09-12T16:12:37;19.10;99.90
80964;DHT22;70425;59.322;13.486;2023-09-12T16:15:26;19.10;99.90
80964;DHT22;70425;59.322;13.486;2023-09-12T16:32:15;19.00;99.90
80964;DHT22;70425;59.322;13.486;2023-09-12T16:59:42;19.20;99.90
80964;DHT22;70425;59.322;13.486;2023-09-12T18:37:08;16.20;99.90
80964;DHT22;70425;59.322;13.486;2023-09-12T18:53:26;15.40;99.90
80964;DHT22;70425;59.322;13.486;2023-09-12T21:13:57;14.50;99.90
80964;DHT22;70425;59.322;13.486;2023-09-12T22:31:28;13.60;99.90
80964;DHT22;70425;59.322;13.486;2023-09-12T23:55:10;12.40;99.90
